Cleveland, OH

6:22 PM EDT on August 31, 2016 (GMT -0400)
LeanDog | | Change Station

Elev 574 ft 41.51 °N, 81.69 °W | Updated 17 seconds ago

Mostly Cloudy
Mostly Cloudy
76.8 °F
Feels Like 78 °F
N
9.0
Wind Variable Wind from SSW

Today
High -- | Low -- °F
--% Chance of Precip.
Yesterday
High -- | Low -- °F
Precip. -- in
Pressure 29.91 in
Visibility 10.0 miles
Clouds Few 2000 ft
Scattered Clouds 3000 ft
Mostly Cloudy 4600 ft
Heat Index 78 °F
Dew Point 70 °F
Humidity 78%
Rainfall 0.02 in
Snow Depth Not available.
6:52 AM 8:00 PM
Waning Crescent, 0% visible
METAR KBKL 312153Z 36013KT 10SM FEW020 SCT030 BKN046 25/21 A2993 RMK AO2 SLP129 T02500206
Pressure 29.91 in
Visibility 10.0 miles
Clouds Few 2000 ft
Scattered Clouds 3000 ft
Mostly Cloudy 4600 ft
Heat Index 78 °F
Dew Point 70 °F
Humidity 78%
Rainfall 0.02 in
Snow Depth Not available.
6:52 AM 8:00 PM
Waning Crescent, 0% visible
METAR KBKL 312153Z 36013KT 10SM FEW020 SCT030 BKN046 25/21 A2993 RMK AO2 SLP129 T02500206

10-Day Weather Forecast

Almanac

Astronomy

Aug. 31, 2016 Rise Set
Actual Time
Civil Twilight
Nautical Twilight
Astronomical Twilight
Moon
Length of Visible Light
Length of Day
Tomorrow will be .
, % of the Moon is Illuminated

Today's Extremes

State Highs State Lows

Community

WunderPhotos

Upload Photos

1,936,200 photos uploaded!

WunderBlog® & News

Nearby

Air Quality

  Air Quality AQ Index Pollutant
Not available.

Snow Depth

Station Depth Elevation

Earthquake Activity

City Distance Mag. Time & Date
Minimum magnitude displayed is 2.5.

Coastal Water Temperatures

Place Temperature

Stations

Nearby Weather Stations

Station Location Temp. Windchill Dew Point Humidity Wind Precip. Elev Updated Type
                   

Watches & Warnings

There are currently no watches in effect.